sensor_id;sensor_type;location;lat;lon;timestamp;pressure;altitude;pressure_sealevel;temperature;humidity
38630;BME280;24384;51.988;4.644;2023-02-28T00:01:25;103326.53;;;2.09;72.43
38630;BME280;24384;51.988;4.644;2023-02-28T00:03:51;103325.00;;;1.93;73.14
38630;BME280;24384;51.988;4.644;2023-02-28T00:06:16;103326.16;;;2.00;72.97
38630;BME280;24384;51.988;4.644;2023-02-28T00:08:42;103334.09;;;2.03;72.60
38630;BME280;24384;51.988;4.644;2023-02-28T00:11:12;103324.94;;;1.92;73.26
38630;BME280;24384;51.988;4.644;2023-02-28T00:13:41;103332.56;;;1.87;73.87
38630;BME280;24384;51.988;4.644;2023-02-28T00:16:09;103335.56;;;1.96;74.14
38630;BME280;24384;51.988;4.644;2023-02-28T00:18:35;103334.81;;;1.79;75.48
38630;BME280;24384;51.988;4.644;2023-02-28T00:21:00;103337.13;;;1.93;74.43
38630;BME280;24384;51.988;4.644;2023-02-28T00:23:26;103331.66;;;1.87;75.53
38630;BME280;24384;51.988;4.644;2023-02-28T00:25:52;103348.81;;;2.03;74.70
38630;BME280;24384;51.988;4.644;2023-02-28T00:28:17;103343.63;;;2.03;75.52
38630;BME280;24384;51.988;4.644;2023-02-28T00:30:43;103345.38;;;2.04;75.58
38630;BME280;24384;51.988;4.644;2023-02-28T00:33:08;103336.88;;;2.08;75.47
38630;BME280;24384;51.988;4.644;2023-02-28T00:35:34;103339.69;;;2.12;75.90
38630;BME280;24384;51.988;4.644;2023-02-28T00:37:59;103340.38;;;2.08;76.01
38630;BME280;24384;51.988;4.644;2023-02-28T00:40:24;103334.34;;;2.09;76.43
38630;BME280;24384;51.988;4.644;2023-02-28T00:42:49;103339.13;;;2.20;75.71
38630;BME280;24384;51.988;4.644;2023-02-28T00:45:15;103338.78;;;2.33;75.63
38630;BME280;24384;51.988;4.644;2023-02-28T00:47:40;103337.22;;;2.37;75.47
38630;BME280;24384;51.988;4.644;2023-02-28T00:50:06;103343.81;;;2.49;75.25
38630;BME280;24384;51.988;4.644;2023-02-28T00:52:31;103334.13;;;2.47;75.50
38630;BME280;24384;51.988;4.644;2023-02-28T00:54:57;103324.50;;;2.44;75.96
38630;BME280;24384;51.988;4.644;2023-02-28T00:57:22;103332.31;;;2.44;75.48
38630;BME280;24384;51.988;4.644;2023-02-28T00:59:48;103323.09;;;2.53;75.42
38630;BME280;24384;51.988;4.644;2023-02-28T01:02:13;103332.81;;;2.57;75.41
38630;BME280;24384;51.988;4.644;2023-02-28T01:04:39;103336.94;;;2.51;76.00
38630;BME280;24384;51.988;4.644;2023-02-28T01:07:04;103335.16;;;2.50;76.54
38630;BME280;24384;51.988;4.644;2023-02-28T01:09:29;103334.63;;;2.59;76.36
38630;BME280;24384;51.988;4.644;2023-02-28T01:11:55;103346.66;;;2.56;76.52
38630;BME280;24384;51.988;4.644;2023-02-28T01:14:20;103352.88;;;2.59;76.00
38630;BME280;24384;51.988;4.644;2023-02-28T01:16:45;103343.84;;;2.72;75.41
38630;BME280;24384;51.988;4.644;2023-02-28T01:19:11;103337.28;;;2.61;76.64
38630;BME280;24384;51.988;4.644;2023-02-28T01:21:36;103346.69;;;2.78;76.33
38630;BME280;24384;51.988;4.644;2023-02-28T01:24:03;103331.13;;;2.80;75.87
38630;BME280;24384;51.988;4.644;2023-02-28T01:26:29;103337.09;;;2.77;76.15
38630;BME280;24384;51.988;4.644;2023-02-28T01:28:54;103335.66;;;2.85;76.26
38630;BME280;24384;51.988;4.644;2023-02-28T01:31:21;103328.25;;;2.96;75.43
38630;BME280;24384;51.988;4.644;2023-02-28T01:33:46;103330.28;;;3.03;74.80
38630;BME280;24384;51.988;4.644;2023-02-28T01:36:14;103325.81;;;3.01;74.72
38630;BME280;24384;51.988;4.644;2023-02-28T01:38:40;103323.84;;;2.94;75.64
38630;BME280;24384;51.988;4.644;2023-02-28T01:41:07;103328.72;;;3.09;75.20
38630;BME280;24384;51.988;4.644;2023-02-28T01:43:56;103322.28;;;2.99;75.28
38630;BME280;24384;51.988;4.644;2023-02-28T01:46:23;103323.16;;;2.99;75.31
38630;BME280;24384;51.988;4.644;2023-02-28T01:48:56;103321.28;;;2.95;75.53
38630;BME280;24384;51.988;4.644;2023-02-28T01:54:11;103316.41;;;3.04;75.61
38630;BME280;24384;51.988;4.644;2023-02-28T01:56:46;103314.84;;;3.10;75.12
38630;BME280;24384;51.988;4.644;2023-02-28T01:59:14;103305.41;;;3.13;75.07
38630;BME280;24384;51.988;4.644;2023-02-28T02:01:42;103305.72;;;3.21;74.69
38630;BME280;24384;51.988;4.644;2023-02-28T02:04:07;103305.19;;;3.07;75.41
38630;BME280;24384;51.988;4.644;2023-02-28T02:06:43;103310.47;;;3.09;75.24
38630;BME280;24384;51.988;4.644;2023-02-28T02:09:10;103304.19;;;3.03;75.94
38630;BME280;24384;51.988;4.644;2023-02-28T02:11:36;103294.75;;;3.07;75.99
38630;BME280;24384;51.988;4.644;2023-02-28T02:16:35;103294.13;;;3.13;75.92
38630;BME280;24384;51.988;4.644;2023-02-28T02:25:18;103293.47;;;3.18;75.37
38630;BME280;24384;51.988;4.644;2023-02-28T02:36:19;103278.59;;;3.16;76.05
38630;BME280;24384;51.988;4.644;2023-02-28T02:38:54;103280.41;;;3.18;76.20
38630;BME280;24384;51.988;4.644;2023-02-28T02:46:48;103277.72;;;3.15;76.29
38630;BME280;24384;51.988;4.644;2023-02-28T02:49:33;103277.66;;;3.14;76.52
38630;BME280;24384;51.988;4.644;2023-02-28T02:52:04;103286.69;;;3.23;76.39
38630;BME280;24384;51.988;4.644;2023-02-28T02:54:40;103292.94;;;3.29;76.01
38630;BME280;24384;51.988;4.644;2023-02-28T02:57:09;103288.47;;;3.25;76.19
38630;BME280;24384;51.988;4.644;2023-02-28T02:59:38;103281.03;;;3.11;77.19
38630;BME280;24384;51.988;4.644;2023-02-28T03:02:07;103281.66;;;3.05;77.45
38630;BME280;24384;51.988;4.644;2023-02-28T03:04:46;103274.34;;;3.19;76.83
38630;BME280;24384;51.988;4.644;2023-02-28T03:07:13;103281.31;;;3.19;76.73
38630;BME280;24384;51.988;4.644;2023-02-28T03:09:38;103289.13;;;3.19;77.04
38630;BME280;24384;51.988;4.644;2023-02-28T03:12:06;103291.78;;;3.20;77.50
38630;BME280;24384;51.988;4.644;2023-02-28T03:15:05;103295.72;;;3.09;77.43
38630;BME280;24384;51.988;4.644;2023-02-28T03:20:13;103289.66;;;3.10;77.67
38630;BME280;24384;51.988;4.644;2023-02-28T03:26:07;103297.53;;;3.12;77.69
38630;BME280;24384;51.988;4.644;2023-02-28T03:28:15;103307.84;;;3.09;78.36
38630;BME280;24384;51.988;4.644;2023-02-28T03:31:00;103305.41;;;3.13;77.71
38630;BME280;24384;51.988;4.644;2023-02-28T03:33:51;103300.22;;;3.13;78.26
38630;BME280;24384;51.988;4.644;2023-02-28T03:36:23;103298.78;;;3.21;78.04
38630;BME280;24384;51.988;4.644;2023-02-28T03:39:05;103294.75;;;3.07;78.06
38630;BME280;24384;51.988;4.644;2023-02-28T03:41:59;103294.22;;;3.16;78.51
38630;BME280;24384;51.988;4.644;2023-02-28T03:44:35;103289.06;;;3.17;78.58
38630;BME280;24384;51.988;4.644;2023-02-28T03:50:02;103301.22;;;3.17;78.84
38630;BME280;24384;51.988;4.644;2023-02-28T03:52:35;103295.97;;;3.15;79.30
38630;BME280;24384;51.988;4.644;2023-02-28T03:55:07;103298.22;;;3.06;80.11
38630;BME280;24384;51.988;4.644;2023-02-28T03:57:53;103287.97;;;3.11;80.11
38630;BME280;24384;51.988;4.644;2023-02-28T04:00:29;103284.44;;;3.10;79.85
38630;BME280;24384;51.988;4.644;2023-02-28T04:02:57;103289.06;;;3.17;79.69
38630;BME280;24384;51.988;4.644;2023-02-28T04:05:22;103286.53;;;3.19;79.22
38630;BME280;24384;51.988;4.644;2023-02-28T04:07:48;103284.31;;;3.30;79.43
38630;BME280;24384;51.988;4.644;2023-02-28T04:10:15;103289.63;;;3.33;78.89
38630;BME280;24384;51.988;4.644;2023-02-28T04:12:40;103295.50;;;3.27;78.84
38630;BME280;24384;51.988;4.644;2023-02-28T04:15:06;103279.75;;;3.24;78.72
38630;BME280;24384;51.988;4.644;2023-02-28T04:17:32;103287.44;;;3.21;79.44
38630;BME280;24384;51.988;4.644;2023-02-28T04:19:57;103281.91;;;3.36;78.69
38630;BME280;24384;51.988;4.644;2023-02-28T04:22:23;103287.41;;;3.19;79.35
38630;BME280;24384;51.988;4.644;2023-02-28T04:24:51;103288.38;;;3.21;78.89
38630;BME280;24384;51.988;4.644;2023-02-28T04:27:16;103296.34;;;3.26;78.96
38630;BME280;24384;51.988;4.644;2023-02-28T04:29:41;103294.72;;;3.30;78.67
38630;BME280;24384;51.988;4.644;2023-02-28T04:32:09;103294.03;;;3.34;78.76
38630;BME280;24384;51.988;4.644;2023-02-28T04:34:35;103302.19;;;3.43;78.71
38630;BME280;24384;51.988;4.644;2023-02-28T04:37:00;103297.94;;;3.47;78.93
38630;BME280;24384;51.988;4.644;2023-02-28T04:39:25;103291.53;;;3.37;78.29
38630;BME280;24384;51.988;4.644;2023-02-28T04:41:51;103300.13;;;3.34;78.33
38630;BME280;24384;51.988;4.644;2023-02-28T04:44:16;103293.81;;;3.28;79.23
38630;BME280;24384;51.988;4.644;2023-02-28T04:46:43;103297.47;;;3.33;78.92
38630;BME280;24384;51.988;4.644;2023-02-28T04:49:12;103300.00;;;3.31;78.85
38630;BME280;24384;51.988;4.644;2023-02-28T04:51:38;103309.78;;;3.37;79.85
38630;BME280;24384;51.988;4.644;2023-02-28T04:54:04;103312.72;;;3.46;79.67
38630;BME280;24384;51.988;4.644;2023-02-28T04:56:29;103306.75;;;3.50;79.13
38630;BME280;24384;51.988;4.644;2023-02-28T04:58:54;103311.59;;;3.64;78.41
38630;BME280;24384;51.988;4.644;2023-02-28T05:01:23;103313.38;;;3.65;79.14
38630;BME280;24384;51.988;4.644;2023-02-28T05:03:50;103314.03;;;3.59;78.48
38630;BME280;24384;51.988;4.644;2023-02-28T05:06:16;103307.78;;;3.54;77.78
38630;BME280;24384;51.988;4.644;2023-02-28T05:08:41;103311.97;;;3.50;77.43
38630;BME280;24384;51.988;4.644;2023-02-28T05:13:41;103312.72;;;3.46;77.38
38630;BME280;24384;51.988;4.644;2023-02-28T05:16:07;103302.00;;;3.38;77.88
38630;BME280;24384;51.988;4.644;2023-02-28T05:18:32;103306.88;;;3.53;76.97
38630;BME280;24384;51.988;4.644;2023-02-28T05:20:57;103308.50;;;3.50;77.97
38630;BME280;24384;51.988;4.644;2023-02-28T05:23:23;103308.88;;;3.61;78.86
38630;BME280;24384;51.988;4.644;2023-02-28T05:25:48;103314.31;;;3.67;77.87
38630;BME280;24384;51.988;4.644;2023-02-28T05:28:13;103310.09;;;3.70;78.40
38630;BME280;24384;51.988;4.644;2023-02-28T05:30:39;103312.84;;;3.75;79.33
38630;BME280;24384;51.988;4.644;2023-02-28T05:33:04;103318.06;;;3.75;79.61
38630;BME280;24384;51.988;4.644;2023-02-28T05:35:30;103308.81;;;3.83;79.32
38630;BME280;24384;51.988;4.644;2023-02-28T05:37:55;103308.25;;;3.93;77.01
38630;BME280;24384;51.988;4.644;2023-02-28T05:40:20;103307.19;;;3.87;77.76
38630;BME280;24384;51.988;4.644;2023-02-28T05:42:46;103308.53;;;3.75;78.32
38630;BME280;24384;51.988;4.644;2023-02-28T05:45:11;103306.75;;;3.74;79.28
38630;BME280;24384;51.988;4.644;2023-02-28T05:47:36;103312.03;;;3.76;79.16
38630;BME280;24384;51.988;4.644;2023-02-28T05:50:02;103321.53;;;3.74;78.93
38630;BME280;24384;51.988;4.644;2023-02-28T05:52:28;103320.78;;;3.78;77.02
38630;BME280;24384;51.988;4.644;2023-02-28T05:54:55;103316.75;;;3.62;79.08
38630;BME280;24384;51.988;4.644;2023-02-28T05:57:21;103313.00;;;3.54;80.79
38630;BME280;24384;51.988;4.644;2023-02-28T05:59:46;103326.66;;;3.47;77.88
38630;BME280;24384;51.988;4.644;2023-02-28T06:02:14;103317.66;;;3.38;78.29
38630;BME280;24384;51.988;4.644;2023-02-28T06:04:39;103310.38;;;3.30;77.64
38630;BME280;24384;51.988;4.644;2023-02-28T06:07:06;103319.25;;;3.11;76.14
38630;BME280;24384;51.988;4.644;2023-02-28T06:09:32;103315.63;;;3.07;75.79
38630;BME280;24384;51.988;4.644;2023-02-28T06:11:59;103318.03;;;2.78;73.92
38630;BME280;24384;51.988;4.644;2023-02-28T06:14:24;103317.84;;;2.74;74.47
38630;BME280;24384;51.988;4.644;2023-02-28T06:16:52;103321.09;;;2.68;74.61
38630;BME280;24384;51.988;4.644;2023-02-28T06:19:17;103321.84;;;2.65;74.14
38630;BME280;24384;51.988;4.644;2023-02-28T06:21:43;103322.97;;;2.49;74.25
38630;BME280;24384;51.988;4.644;2023-02-28T06:24:08;103320.47;;;2.53;74.25
38630;BME280;24384;51.988;4.644;2023-02-28T06:26:33;103324.09;;;2.56;76.63
38630;BME280;24384;51.988;4.644;2023-02-28T06:29:00;103325.63;;;2.51;75.26
38630;BME280;24384;51.988;4.644;2023-02-28T06:31:26;103319.03;;;2.38;75.29
38630;BME280;24384;51.988;4.644;2023-02-28T06:33:52;103316.25;;;2.12;75.20
38630;BME280;24384;51.988;4.644;2023-02-28T06:36:17;103328.25;;;2.09;76.57
38630;BME280;24384;51.988;4.644;2023-02-28T06:38:44;103328.56;;;1.95;77.98
38630;BME280;24384;51.988;4.644;2023-02-28T06:41:10;103323.25;;;1.73;79.72
38630;BME280;24384;51.988;4.644;2023-02-28T06:43:38;103323.09;;;1.89;79.52
38630;BME280;24384;51.988;4.644;2023-02-28T06:46:06;103329.34;;;1.73;79.92
38630;BME280;24384;51.988;4.644;2023-02-28T06:48:32;103333.78;;;1.76;80.17
38630;BME280;24384;51.988;4.644;2023-02-28T06:51:03;103331.63;;;1.66;80.25
38630;BME280;24384;51.988;4.644;2023-02-28T06:53:29;103347.44;;;1.70;81.13
38630;BME280;24384;51.988;4.644;2023-02-28T06:55:54;103343.25;;;1.54;81.14
38630;BME280;24384;51.988;4.644;2023-02-28T06:58:19;103352.56;;;1.69;82.61
38630;BME280;24384;51.988;4.644;2023-02-28T07:00:50;103354.59;;;1.76;82.77
38630;BME280;24384;51.988;4.644;2023-02-28T07:03:16;103363.84;;;1.89;85.07
38630;BME280;24384;51.988;4.644;2023-02-28T07:05:42;103363.28;;;1.96;84.05
38630;BME280;24384;51.988;4.644;2023-02-28T07:08:08;103364.78;;;1.91;83.52
38630;BME280;24384;51.988;4.644;2023-02-28T07:10:33;103363.59;;;1.83;83.64
38630;BME280;24384;51.988;4.644;2023-02-28T07:12:59;103358.38;;;1.63;83.09
38630;BME280;24384;51.988;4.644;2023-02-28T07:15:25;103362.22;;;1.71;83.48
38630;BME280;24384;51.988;4.644;2023-02-28T07:17:51;103364.66;;;1.68;85.09
38630;BME280;24384;51.988;4.644;2023-02-28T07:20:17;103360.59;;;1.73;85.10
38630;BME280;24384;51.988;4.644;2023-02-28T07:22:42;103366.00;;;1.78;84.52
38630;BME280;24384;51.988;4.644;2023-02-28T07:25:08;103370.16;;;1.74;85.20
38630;BME280;24384;51.988;4.644;2023-02-28T07:27:33;103366.59;;;1.72;85.74
38630;BME280;24384;51.988;4.644;2023-02-28T07:29:59;103368.59;;;1.78;85.14
38630;BME280;24384;51.988;4.644;2023-02-28T07:32:26;103367.47;;;1.73;85.55
38630;BME280;24384;51.988;4.644;2023-02-28T07:34:52;103363.88;;;1.69;85.14
38630;BME280;24384;51.988;4.644;2023-02-28T07:37:17;103364.06;;;1.74;86.77
38630;BME280;24384;51.988;4.644;2023-02-28T07:39:42;103368.72;;;1.81;86.22
38630;BME280;24384;51.988;4.644;2023-02-28T07:42:08;103376.16;;;1.93;86.77
38630;BME280;24384;51.988;4.644;2023-02-28T07:44:36;103379.59;;;1.92;87.66
38630;BME280;24384;51.988;4.644;2023-02-28T07:47:10;103375.34;;;1.94;86.54
38630;BME280;24384;51.988;4.644;2023-02-28T07:49:36;103381.44;;;1.94;86.59
38630;BME280;24384;51.988;4.644;2023-02-28T07:52:06;103375.94;;;1.88;86.37
38630;BME280;24384;51.988;4.644;2023-02-28T07:54:33;103382.06;;;1.89;86.41
38630;BME280;24384;51.988;4.644;2023-02-28T07:56:58;103369.59;;;1.82;86.07
38630;BME280;24384;51.988;4.644;2023-02-28T07:59:24;103371.66;;;1.89;85.94
38630;BME280;24384;51.988;4.644;2023-02-28T08:01:49;103368.28;;;1.91;85.42
38630;BME280;24384;51.988;4.644;2023-02-28T08:04:16;103357.19;;;1.76;85.35
38630;BME280;24384;51.988;4.644;2023-02-28T08:06:41;103364.88;;;1.73;85.52
38630;BME280;24384;51.988;4.644;2023-02-28T08:09:06;103367.47;;;1.73;85.73
38630;BME280;24384;51.988;4.644;2023-02-28T08:11:32;103366.72;;;1.75;85.82
38630;BME280;24384;51.988;4.644;2023-02-28T08:13:57;103365.16;;;1.79;85.73
38630;BME280;24384;51.988;4.644;2023-02-28T08:16:23;103370.00;;;1.91;85.69
38630;BME280;24384;51.988;4.644;2023-02-28T08:18:50;103367.19;;;2.06;85.07
38630;BME280;24384;51.988;4.644;2023-02-28T08:21:15;103362.41;;;1.95;84.98
38630;BME280;24384;51.988;4.644;2023-02-28T08:23:40;103366.06;;;2.01;85.36
38630;BME280;24384;51.988;4.644;2023-02-28T08:26:06;103364.13;;;1.95;85.90
38630;BME280;24384;51.988;4.644;2023-02-28T08:28:31;103360.66;;;1.96;85.22
38630;BME280;24384;51.988;4.644;2023-02-28T08:30:57;103368.47;;;1.96;85.11
38630;BME280;24384;51.988;4.644;2023-02-28T08:33:23;103360.88;;;2.01;85.52
38630;BME280;24384;51.988;4.644;2023-02-28T08:35:52;103369.53;;;2.00;85.48
38630;BME280;24384;51.988;4.644;2023-02-28T08:38:17;103370.53;;;2.03;86.19
38630;BME280;24384;51.988;4.644;2023-02-28T08:40:42;103361.91;;;2.04;86.46
38630;BME280;24384;51.988;4.644;2023-02-28T08:43:08;103372.19;;;2.01;87.18
38630;BME280;24384;51.988;4.644;2023-02-28T08:45:33;103358.59;;;2.08;86.62
38630;BME280;24384;51.988;4.644;2023-02-28T08:47:58;103360.19;;;2.05;86.98
38630;BME280;24384;51.988;4.644;2023-02-28T08:50:23;103366.78;;;2.18;86.61
38630;BME280;24384;51.988;4.644;2023-02-28T08:52:49;103364.31;;;2.21;85.26
38630;BME280;24384;51.988;4.644;2023-02-28T08:55:14;103364.63;;;2.28;86.00
38630;BME280;24384;51.988;4.644;2023-02-28T08:57:41;103359.88;;;2.39;85.68
38630;BME280;24384;51.988;4.644;2023-02-28T09:00:07;103366.63;;;2.34;86.18
38630;BME280;24384;51.988;4.644;2023-02-28T09:02:33;103368.25;;;2.53;85.63
38630;BME280;24384;51.988;4.644;2023-02-28T09:04:58;103359.94;;;2.62;84.53
38630;BME280;24384;51.988;4.644;2023-02-28T09:07:24;103356.81;;;2.71;85.21
38630;BME280;24384;51.988;4.644;2023-02-28T09:09:50;103365.19;;;2.63;85.94
38630;BME280;24384;51.988;4.644;2023-02-28T09:12:25;103360.84;;;2.85;85.28
38630;BME280;24384;51.988;4.644;2023-02-28T09:14:50;103361.44;;;3.00;85.19
38630;BME280;24384;51.988;4.644;2023-02-28T09:17:16;103363.75;;;2.93;84.46
38630;BME280;24384;51.988;4.644;2023-02-28T09:19:41;103373.41;;;2.95;84.74
38630;BME280;24384;51.988;4.644;2023-02-28T09:22:08;103374.31;;;2.96;84.87
38630;BME280;24384;51.988;4.644;2023-02-28T09:24:33;103364.53;;;3.13;84.73
38630;BME280;24384;51.988;4.644;2023-02-28T09:26:58;103368.47;;;3.26;84.18
38630;BME280;24384;51.988;4.644;2023-02-28T09:29:23;103369.03;;;3.41;84.62
38630;BME280;24384;51.988;4.644;2023-02-28T09:31:49;103380.69;;;3.49;84.25
38630;BME280;24384;51.988;4.644;2023-02-28T09:34:15;103368.78;;;3.57;83.54
38630;BME280;24384;51.988;4.644;2023-02-28T09:36:42;103363.75;;;3.62;84.08
38630;BME280;24384;51.988;4.644;2023-02-28T09:39:07;103373.81;;;3.75;83.95
38630;BME280;24384;51.988;4.644;2023-02-28T09:41:42;103367.38;;;3.91;83.25
38630;BME280;24384;51.988;4.644;2023-02-28T09:44:38;103370.44;;;4.04;81.75
38630;BME280;24384;51.988;4.644;2023-02-28T09:47:14;103379.19;;;4.06;81.71
38630;BME280;24384;51.988;4.644;2023-02-28T09:49:45;103381.13;;;4.11;79.23
38630;BME280;24384;51.988;4.644;2023-02-28T09:52:17;103374.28;;;3.89;80.97
38630;BME280;24384;51.988;4.644;2023-02-28T09:54:44;103377.28;;;3.76;79.79
38630;BME280;24384;51.988;4.644;2023-02-28T09:57:33;103370.53;;;3.57;80.31
38630;BME280;24384;51.988;4.644;2023-02-28T10:00:22;103373.31;;;3.62;81.61
38630;BME280;24384;51.988;4.644;2023-02-28T10:05:50;103370.63;;;3.60;81.73
38630;BME280;24384;51.988;4.644;2023-02-28T10:08:23;103365.38;;;3.58;81.26
38630;BME280;24384;51.988;4.644;2023-02-28T10:10:55;103372.50;;;3.64;81.23
38630;BME280;24384;51.988;4.644;2023-02-28T10:13:26;103371.84;;;3.70;81.06
38630;BME280;24384;51.988;4.644;2023-02-28T10:15:59;103376.06;;;3.66;78.30
38630;BME280;24384;51.988;4.644;2023-02-28T10:18:30;103377.00;;;3.68;78.99
38630;BME280;24384;51.988;4.644;2023-02-28T10:20:59;103365.53;;;3.63;78.63
38630;BME280;24384;51.988;4.644;2023-02-28T10:23:28;103368.09;;;3.62;77.83
38630;BME280;24384;51.988;4.644;2023-02-28T10:26:03;103367.34;;;3.66;76.82
38630;BME280;24384;51.988;4.644;2023-02-28T10:28:32;103373.97;;;3.80;77.36
38630;BME280;24384;51.988;4.644;2023-02-28T10:30:58;103369.25;;;3.70;75.53
38630;BME280;24384;51.988;4.644;2023-02-28T10:33:34;103364.94;;;3.96;76.24
38630;BME280;24384;51.988;4.644;2023-02-28T10:36:01;103372.69;;;4.19;73.29
38630;BME280;24384;51.988;4.644;2023-02-28T10:38:36;103365.63;;;4.42;72.19
38630;BME280;24384;51.988;4.644;2023-02-28T10:41:03;103362.28;;;5.02;73.35
38630;BME280;24384;51.988;4.644;2023-02-28T10:43:28;103351.50;;;5.84;68.38
38630;BME280;24384;51.988;4.644;2023-02-28T10:45:57;103354.03;;;6.13;65.41
38630;BME280;24384;51.988;4.644;2023-02-28T10:48:32;103349.53;;;6.42;60.63
38630;BME280;24384;51.988;4.644;2023-02-28T10:50:59;103335.41;;;8.06;65.13
38630;BME280;24384;51.988;4.644;2023-02-28T10:53:29;103330.44;;;9.45;58.41
38630;BME280;24384;51.988;4.644;2023-02-28T10:56:18;103326.81;;;10.26;48.19
38630;BME280;24384;51.988;4.644;2023-02-28T11:03:57;103307.59;;;13.85;39.89
38630;BME280;24384;51.988;4.644;2023-02-28T11:06:26;103306.75;;;14.78;35.56
38630;BME280;24384;51.988;4.644;2023-02-28T11:08:56;103305.09;;;15.39;34.90
38630;BME280;24384;51.988;4.644;2023-02-28T11:11:25;103297.41;;;16.31;34.18
38630;BME280;24384;51.988;4.644;2023-02-28T11:13:53;103291.75;;;17.37;28.64
38630;BME280;24384;51.988;4.644;2023-02-28T11:16:20;103301.13;;;17.14;31.52
38630;BME280;24384;51.988;4.644;2023-02-28T11:19:06;103288.28;;;16.91;30.02
38630;BME280;24384;51.988;4.644;2023-02-28T11:21:52;103295.75;;;15.72;31.78
38630;BME280;24384;51.988;4.644;2023-02-28T11:24:42;103303.41;;;13.52;38.24
38630;BME280;24384;51.988;4.644;2023-02-28T11:27:26;103309.13;;;12.04;40.88
38630;BME280;24384;51.988;4.644;2023-02-28T11:29:59;103302.75;;;11.24;37.87
38630;BME280;24384;51.988;4.644;2023-02-28T11:32:27;103325.78;;;10.07;33.11
38630;BME280;24384;51.988;4.644;2023-02-28T11:35:17;103308.25;;;10.14;43.85
38630;BME280;24384;51.988;4.644;2023-02-28T11:37:47;103308.53;;;9.51;45.30
38630;BME280;24384;51.988;4.644;2023-02-28T11:40:57;103302.75;;;9.08;38.39
38630;BME280;24384;51.988;4.644;2023-02-28T11:48:38;103293.16;;;11.53;37.57
38630;BME280;24384;51.988;4.644;2023-02-28T11:51:18;103292.28;;;11.69;40.02
38630;BME280;24384;51.988;4.644;2023-02-28T11:56:48;103263.91;;;16.21;32.11
38630;BME280;24384;51.988;4.644;2023-02-28T12:02:25;103251.53;;;18.81;22.45
38630;BME280;24384;51.988;4.644;2023-02-28T12:05:24;103240.41;;;20.32;22.25
38630;BME280;24384;51.988;4.644;2023-02-28T12:08:21;103232.16;;;21.31;21.25
38630;BME280;24384;51.988;4.644;2023-02-28T12:16:59;103219.03;;;23.98;19.45
38630;BME280;24384;51.988;4.644;2023-02-28T12:22:29;103232.63;;;21.85;20.69
38630;BME280;24384;51.988;4.644;2023-02-28T12:27:41;103224.97;;;21.09;23.66
38630;BME280;24384;51.988;4.644;2023-02-28T12:30:24;103226.06;;;21.70;24.90
38630;BME280;24384;51.988;4.644;2023-02-28T12:33:04;103221.72;;;22.50;25.45
38630;BME280;24384;51.988;4.644;2023-02-28T12:35:41;103224.22;;;21.72;25.95
38630;BME280;24384;51.988;4.644;2023-02-28T12:38:23;103238.19;;;20.92;22.53
38630;BME280;24384;51.988;4.644;2023-02-28T12:40:55;103227.19;;;20.51;22.05
38630;BME280;24384;51.988;4.644;2023-02-28T12:43:25;103230.91;;;19.43;27.47
38630;BME280;24384;51.988;4.644;2023-02-28T12:45:59;103220.78;;;19.81;24.18
38630;BME280;24384;51.988;4.644;2023-02-28T12:48:33;103228.13;;;18.58;25.18
38630;BME280;24384;51.988;4.644;2023-02-28T12:51:02;103233.28;;;16.42;30.36
38630;BME280;24384;51.988;4.644;2023-02-28T12:53:49;103230.09;;;16.68;29.00
38630;BME280;24384;51.988;4.644;2023-02-28T12:59:33;103224.13;;;16.11;26.89
38630;BME280;24384;51.988;4.644;2023-02-28T13:02:09;103226.41;;;15.82;35.28
38630;BME280;24384;51.988;4.644;2023-02-28T13:07:53;103211.72;;;16.10;27.83
38630;BME280;24384;51.988;4.644;2023-02-28T13:10:24;103204.91;;;16.85;32.78
38630;BME280;24384;51.988;4.644;2023-02-28T13:12:52;103204.38;;;17.83;32.78
38630;BME280;24384;51.988;4.644;2023-02-28T13:15:23;103199.59;;;17.61;28.42
38630;BME280;24384;51.988;4.644;2023-02-28T13:17:55;103198.78;;;17.20;28.13
38630;BME280;24384;51.988;4.644;2023-02-28T13:20:24;103198.66;;;16.87;29.08
38630;BME280;24384;51.988;4.644;2023-02-28T13:22:54;103198.44;;;16.98;32.64
38630;BME280;24384;51.988;4.644;2023-02-28T13:28:12;103187.00;;;16.91;30.83
38630;BME280;24384;51.988;4.644;2023-02-28T13:35:46;103187.56;;;15.71;30.79
38630;BME280;24384;51.988;4.644;2023-02-28T13:38:33;103186.47;;;15.29;32.37
38630;BME280;24384;51.988;4.644;2023-02-28T13:44:12;103178.00;;;14.33;31.84
38630;BME280;24384;51.988;4.644;2023-02-28T13:51:53;103178.75;;;13.58;40.12
38630;BME280;24384;51.988;4.644;2023-02-28T14:02:35;103170.69;;;11.69;47.37
38630;BME280;24384;51.988;4.644;2023-02-28T14:05:14;103168.94;;;11.48;42.61
38630;BME280;24384;51.988;4.644;2023-02-28T14:07:50;103170.69;;;11.57;40.03
38630;BME280;24384;51.988;4.644;2023-02-28T14:10:40;103171.59;;;11.97;43.59
38630;BME280;24384;51.988;4.644;2023-02-28T14:16:00;103158.78;;;13.06;36.46
38630;BME280;24384;51.988;4.644;2023-02-28T14:18:32;103158.66;;;13.23;35.79
38630;BME280;24384;51.988;4.644;2023-02-28T14:23:43;103138.53;;;14.03;35.08
38630;BME280;24384;51.988;4.644;2023-02-28T14:29:18;103150.69;;;14.95;40.98
38630;BME280;24384;51.988;4.644;2023-02-28T14:34:42;103138.84;;;13.73;25.40
38630;BME280;24384;51.988;4.644;2023-02-28T14:37:15;103146.38;;;14.13;37.10
38630;BME280;24384;51.988;4.644;2023-02-28T14:39:42;103144.50;;;14.23;36.48
38630;BME280;24384;51.988;4.644;2023-02-28T14:42:48;103135.16;;;13.85;37.99
38630;BME280;24384;51.988;4.644;2023-02-28T14:45:20;103140.88;;;13.42;35.10
38630;BME280;24384;51.988;4.644;2023-02-28T14:47:49;103137.13;;;14.45;32.56
38630;BME280;24384;51.988;4.644;2023-02-28T14:50:23;103131.25;;;15.46;33.95
38630;BME280;24384;51.988;4.644;2023-02-28T14:52:54;103129.94;;;17.00;32.61
38630;BME280;24384;51.988;4.644;2023-02-28T14:55:25;103121.13;;;17.34;30.25
38630;BME280;24384;51.988;4.644;2023-02-28T14:57:54;103131.75;;;18.94;28.45
38630;BME280;24384;51.988;4.644;2023-02-28T15:02:49;103123.38;;;20.56;28.17